Terminal Aerodrome Forecast
Issued by NWS

Home | Current Version | Previous Version | Graphics & Text | Print | Product List | Glossary On
Versions: 1 2 3 4 5 6 7 8 9 10 11 12 13 14 15 16 17
000
FTUS43 KBIS 231700
TAFDIK
TAF
KDIK 231720Z 2318/2418 31012KT P6SM OVC009
     FM240200 28008KT P6SM BKN070
     FM240700 23007KT P6SM SCT015 BKN070 OVC250=

USA.gov is the U.S. government's official web portal to all federal, state and local government web resources and services.